Time,TemperatureF,DewpointF,PressureIn,WindDirection,WindDirectionDegrees,WindSpeedMPH,WindSpeedGustMPH,Humidity,HourlyPrecipIn,Conditions,Clouds,dailyrainin,SoftwareType,DateUTC
2013-08-10 00:02:00,67.0,65.0,-100.00,SW,220,2.0,2.0,91,0.00,,,-99.99,,2013-08-10 04:02:00,
2013-08-10 00:53:00,66.0,65.0,-100.00,West,270,1.0,1.0,94,0.00,,,-99.99,,2013-08-10 04:53:00,
2013-08-10 01:11:00,66.0,65.0,-100.00,West,270,0.0,1.0,96,0.00,,,-99.99,,2013-08-10 05:11:00,
2013-08-10 01:22:00,65.0,65.0,-100.00,WSW,240,0.0,1.0,97,0.00,,,-99.99,,2013-08-10 05:22:00,
2013-08-10 01:32:00,65.0,64.0,-100.00,SSW,205,0.0,0.0,98,0.00,,,-99.99,,2013-08-10 05:32:00,
2013-08-10 01:43:00,64.0,64.0,-100.00,SSW,205,0.0,0.0,99,0.00,,,-99.99,,2013-08-10 05:43:00,
2013-08-10 02:02:00,65.0,-99.9,-100.00,SSW,205,0.0,1.0,-999,0.00,,,-99.99,,2013-08-10 06:02:00,
2013-08-10 03:02:00,64.0,-99.9,-100.00,South,190,0.0,3.0,-999,0.00,,,-99.99,,2013-08-10 07:02:00,
2013-08-10 03:13:00,64.0,-99.9,-100.00,West,275,0.0,0.0,-999,0.00,,,-99.99,,2013-08-10 07:13:00,
2013-08-10 03:22:00,64.0,-99.9,-100.00,West,270,1.0,1.0,-999,0.00,,,-99.99,,2013-08-10 07:22:00,
2013-08-10 03:33:00,64.0,-99.9,-100.00,West,265,1.0,1.0,-999,0.00,,,-99.99,,2013-08-10 07:33:00,
2013-08-10 03:43:00,64.0,-99.9,-100.00,WSW,255,0.0,1.0,-999,0.00,,,-99.99,,2013-08-10 07:43:00,
2013-08-10 03:52:00,64.0,-99.9,-100.00,WSW,240,11.0,13.0,-999,0.00,,,-99.99,,2013-08-10 07:52:00,
2013-08-10 04:02:00,64.0,-99.9,-100.00,East,100,13.0,13.0,-999,0.00,,,-99.99,,2013-08-10 08:02:00,
2013-08-10 04:12:00,65.0,-99.9,-100.00,East,80,13.0,13.0,-999,0.00,,,-99.99,,2013-08-10 08:12:00,
2013-08-10 04:22:00,65.0,-99.9,-100.00,East,80,13.0,13.0,-999,0.00,,,-99.99,,2013-08-10 08:22:00,
2013-08-10 04:32:00,65.0,-99.9,-100.00,ESE,105,13.0,13.0,-999,0.00,,,-99.99,,2013-08-10 08:32:00,
2013-08-10 04:43:00,65.0,-99.9,-100.00,ESE,115,13.0,13.0,-999,0.00,,,-99.99,,2013-08-10 08:43:00,
2013-08-10 05:02:00,65.0,-99.9,-100.00,SE,130,13.0,13.0,-999,0.00,,,-99.99,,2013-08-10 09:02:00,
2013-08-10 05:12:00,65.0,-99.9,-100.00,SE,130,13.0,13.0,-999,0.00,,,-99.99,,2013-08-10 09:12:00,
2013-08-10 05:32:00,65.0,-99.9,-100.00,SSE,155,13.0,13.0,-999,0.00,,,-99.99,,2013-08-10 09:32:00,
2013-08-10 05:43:00,65.0,-99.9,-100.00,East,90,13.0,13.0,-999,0.00,,,-99.99,,2013-08-10 09:43:00,
2013-08-10 06:22:00,65.0,-99.9,-100.00,SE,125,13.0,13.0,-999,0.00,,,-99.99,,2013-08-10 10:22:00,
2013-08-10 06:33:00,66.0,-99.9,-100.00,East,100,13.0,13.0,-999,0.00,,,-99.99,,2013-08-10 10:33:00,
2013-08-10 06:44:00,65.0,-99.9,-100.00,ESE,105,13.0,13.0,-999,0.00,,,-99.99,,2013-08-10 10:44:00,
2013-08-10 07:43:00,65.0,-99.9,-100.00,ESE,105,13.0,13.0,-999,0.00,,,-99.99,,2013-08-10 11:43:00,
2013-08-10 07:53:00,65.0,-99.9,-100.00,ESE,105,13.0,13.0,-999,0.00,,,-99.99,,2013-08-10 11:53:00,
2013-08-10 08:02:00,65.0,-99.9,-100.00,ESE,105,13.0,13.0,-999,0.00,,,-99.99,,2013-08-10 12:02:00,
2013-08-10 08:11:00,65.0,-99.9,-100.00,ESE,110,13.0,13.0,-999,0.00,,,-99.99,,2013-08-10 12:11:00,
2013-08-10 08:42:00,67.0,66.0,-100.00,ESE,110,13.0,13.0,96,0.00,,,-99.99,,2013-08-10 12:42:00,
2013-08-10 09:01:00,67.0,65.0,-100.00,ESE,120,13.0,13.0,94,0.00,,,-99.99,,2013-08-10 13:01:00,
2013-08-10 09:11:00,67.0,65.0,-100.00,ESE,120,13.0,13.0,94,0.00,,,-99.99,,2013-08-10 13:11:00,
2013-08-10 09:22:00,67.0,66.0,-100.00,ESE,110,13.0,13.0,95,0.00,,,-99.99,,2013-08-10 13:22:00,
2013-08-10 09:32:00,67.0,65.0,-100.00,ESE,115,13.0,13.0,92,0.00,,,-99.99,,2013-08-10 13:32:00,
2013-08-10 09:43:00,70.0,66.0,-100.00,ESE,105,13.0,13.0,88,0.00,,,-99.99,,2013-08-10 13:43:00,
2013-08-10 10:02:00,71.0,66.0,-100.00,ESE,110,13.0,13.0,86,0.00,,,-99.99,,2013-08-10 14:02:00,
2013-08-10 10:12:00,71.0,66.0,-100.00,ESE,110,13.0,13.0,86,0.00,,,-99.99,,2013-08-10 14:12:00,
2013-08-10 10:53:00,70.0,65.0,-100.00,ESE,110,13.0,13.0,85,0.00,,,-99.99,,2013-08-10 14:53:00,
2013-08-10 11:02:00,70.0,65.0,-100.00,ESE,110,13.0,13.0,85,0.00,,,-99.99,,2013-08-10 15:02:00,
2013-08-10 11:34:00,72.0,66.0,-100.00,ESE,105,13.0,13.0,82,0.00,,,-99.99,,2013-08-10 15:34:00,
2013-08-10 11:43:00,72.0,66.0,-100.00,ESE,105,13.0,13.0,82,0.00,,,-99.99,,2013-08-10 15:43:00,
2013-08-10 11:52:00,72.0,66.0,-100.00,ESE,115,13.0,13.0,83,0.00,,,-99.99,,2013-08-10 15:52:00,
2013-08-10 12:01:00,72.0,66.0,-100.00,ESE,105,13.0,13.0,82,0.00,,,-99.99,,2013-08-10 16:01:00,
2013-08-10 12:11:00,73.0,66.0,-100.00,East,100,13.0,13.0,78,0.00,,,-99.99,,2013-08-10 16:11:00,
2013-08-10 12:22:00,74.0,67.0,-100.00,East,100,13.0,13.0,77,0.00,,,-99.99,,2013-08-10 16:22:00,
2013-08-10 12:32:00,73.0,66.0,-100.00,East,90,13.0,13.0,77,0.00,,,-99.99,,2013-08-10 16:32:00,
2013-08-10 12:43:00,73.0,66.0,-100.00,East,90,13.0,13.0,77,0.00,,,-99.99,,2013-08-10 16:43:00,
2013-08-10 12:53:00,74.0,66.0,-100.00,ESE,110,13.0,13.0,76,0.00,,,-99.99,,2013-08-10 16:53:00,
2013-08-10 13:02:00,77.0,66.0,-100.00,WNW,285,13.0,13.0,69,0.00,,,-99.99,,2013-08-10 17:02:00,
2013-08-10 13:12:00,76.0,66.0,-100.00,ESE,105,13.0,13.0,72,0.00,,,-99.99,,2013-08-10 17:12:00,
2013-08-10 13:22:00,76.0,67.0,-100.00,West,275,13.0,13.0,72,0.00,,,-99.99,,2013-08-10 17:22:00,
2013-08-10 13:33:00,77.0,67.0,-100.00,East,95,13.0,13.0,71,0.00,,,-99.99,,2013-08-10 17:33:00,
2013-08-10 13:43:00,77.0,67.0,-100.00,East,95,13.0,13.0,71,0.00,,,-99.99,,2013-08-10 17:43:00,
2013-08-10 13:52:00,77.0,67.0,-100.00,ESE,105,13.0,13.0,71,0.00,,,-99.99,,2013-08-10 17:52:00,
2013-08-10 14:01:00,78.0,67.0,-100.00,WSW,240,13.0,13.0,68,0.00,,,-99.99,,2013-08-10 18:01:00,
2013-08-10 14:11:00,78.0,68.0,-100.00,East,100,13.0,13.0,69,0.00,,,-99.99,,2013-08-10 18:11:00,
2013-08-10 14:23:00,79.0,67.0,-100.00,WNW,290,13.0,13.0,66,0.00,,,-99.99,,2013-08-10 18:23:00,
2013-08-10 14:32:00,79.0,67.0,-100.00,WSW,250,13.0,13.0,66,0.00,,,-99.99,,2013-08-10 18:32:00,
2013-08-10 14:44:00,79.0,67.0,-100.00,WSW,250,13.0,13.0,66,0.00,,,-99.99,,2013-08-10 18:44:00,
2013-08-10 14:52:00,79.0,67.0,-100.00,East,90,13.0,13.0,68,0.00,,,-99.99,,2013-08-10 18:52:00,
2013-08-10 15:02:00,79.0,67.0,-100.00,ESE,110,13.0,13.0,66,0.00,,,-99.99,,2013-08-10 19:02:00,
2013-08-10 15:11:00,79.0,67.0,-100.00,WNW,285,13.0,13.0,65,0.00,,,-99.99,,2013-08-10 19:11:00,
2013-08-10 15:22:00,80.0,66.0,-100.00,WNW,290,13.0,13.0,60,0.00,,,-99.99,,2013-08-10 19:22:00,
2013-08-10 15:33:00,80.0,66.0,-100.00,ESE,105,13.0,13.0,62,0.00,,,-99.99,,2013-08-10 19:33:00,
2013-08-10 15:44:00,80.0,67.0,-100.00,East,95,13.0,13.0,64,0.00,,,-99.99,,2013-08-10 19:44:00,
2013-08-10 15:53:00,80.0,66.0,-100.00,ENE,70,13.0,13.0,62,0.00,,,-99.99,,2013-08-10 19:53:00,
2013-08-10 16:02:00,80.0,66.0,-100.00,SSW,195,13.0,13.0,62,0.00,,,-99.99,,2013-08-10 20:02:00,
2013-08-10 16:12:00,80.0,65.0,-100.00,WNW,285,13.0,13.0,61,0.00,,,-99.99,,2013-08-10 20:12:00,
2013-08-10 16:22:00,80.0,65.0,-100.00,East,95,13.0,13.0,60,0.00,,,-99.99,,2013-08-10 20:22:00,
2013-08-10 16:33:00,82.0,67.0,-100.00,West,275,13.0,13.0,60,0.00,,,-99.99,,2013-08-10 20:33:00,
2013-08-10 16:43:00,80.0,68.0,-100.00,ESE,115,13.0,13.0,67,0.00,,,-99.99,,2013-08-10 20:43:00,
2013-08-10 16:53:00,81.0,67.0,-100.00,ENE,70,13.0,13.0,63,0.00,,,-99.99,,2013-08-10 20:53:00,
2013-08-10 17:02:00,80.0,67.0,-100.00,East,85,13.0,13.0,65,0.00,,,-99.99,,2013-08-10 21:02:00,
2013-08-10 17:12:00,80.0,66.0,-100.00,East,100,13.0,13.0,62,0.00,,,-99.99,,2013-08-10 21:12:00,
2013-08-10 17:22:00,80.0,66.0,-100.00,East,80,13.0,13.0,63,0.00,,,-99.99,,2013-08-10 21:22:00,
2013-08-10 17:32:00,80.0,67.0,-100.00,East,90,13.0,13.0,65,0.00,,,-99.99,,2013-08-10 21:32:00,
2013-08-10 17:42:00,79.0,67.0,-100.00,East,100,13.0,13.0,66,0.00,,,-99.99,,2013-08-10 21:42:00,
2013-08-10 17:52:00,79.0,67.0,-100.00,East,100,13.0,13.0,66,0.00,,,-99.99,,2013-08-10 21:52:00,
2013-08-10 18:01:00,78.0,67.0,-100.00,ESE,105,9.0,13.0,70,0.00,,,-99.99,,2013-08-10 22:01:00,
2013-08-10 18:11:00,77.0,67.0,-100.00,East,95,4.0,12.0,71,0.00,,,-99.99,,2013-08-10 22:11:00,
2013-08-10 18:21:00,78.0,67.0,-100.00,East,95,1.0,10.0,69,0.00,,,-99.99,,2013-08-10 22:21:00,
2013-08-10 18:32:00,77.0,67.0,-100.00,ESE,105,3.0,7.0,71,0.00,,,-99.99,,2013-08-10 22:32:00,
2013-08-10 18:43:00,77.0,67.0,-100.00,ESE,105,3.0,7.0,71,0.00,,,-99.99,,2013-08-10 22:43:00,
2013-08-10 18:52:00,76.0,65.0,-100.00,East,95,3.0,7.0,69,0.00,,,-99.99,,2013-08-10 22:52:00,
2013-08-10 19:02:00,76.0,65.0,-100.00,East,95,3.0,7.0,69,0.00,,,-99.99,,2013-08-10 23:02:00,
2013-08-10 19:12:00,77.0,65.0,-100.00,East,100,13.0,13.0,65,0.00,,,-99.99,,2013-08-10 23:12:00,
2013-08-10 19:22:00,77.0,64.0,-100.00,East,90,13.0,13.0,65,0.00,,,-99.99,,2013-08-10 23:22:00,
2013-08-10 19:32:00,77.0,65.0,-100.00,East,95,13.0,13.0,67,0.00,,,-99.99,,2013-08-10 23:32:00,
2013-08-10 19:43:00,76.0,66.0,-100.00,WNW,290,13.0,13.0,69,0.00,,,-99.99,,2013-08-10 23:43:00,
2013-08-10 19:53:00,77.0,66.0,-100.00,East,95,13.0,13.0,68,0.00,,,-99.99,,2013-08-10 23:53:00,
2013-08-10 20:02:00,76.0,65.0,-100.00,East,80,13.0,13.0,68,0.00,,,-99.99,,2013-08-11 00:02:00,
2013-08-10 20:11:00,75.0,65.0,-100.00,East,90,13.0,13.0,71,0.00,,,-99.99,,2013-08-11 00:11:00,
2013-08-10 20:22:00,75.0,65.0,-100.00,East,100,13.0,13.0,72,0.00,,,-99.99,,2013-08-11 00:22:00,
2013-08-10 20:32:00,74.0,65.0,-100.00,East,100,12.0,13.0,72,0.00,,,-99.99,,2013-08-11 00:32:00,
2013-08-10 20:42:00,74.0,65.0,-100.00,East,90,12.0,13.0,75,0.00,,,-99.99,,2013-08-11 00:42:00,
2013-08-10 20:52:00,73.0,65.0,-100.00,East,100,12.0,13.0,75,0.00,,,-99.99,,2013-08-11 00:52:00,
2013-08-10 21:01:00,73.0,65.0,-100.00,ESE,110,13.0,13.0,77,0.00,,,-99.99,,2013-08-11 01:01:00,
2013-08-10 21:11:00,73.0,65.0,-100.00,East,90,5.0,13.0,78,0.00,,,-99.99,,2013-08-11 01:11:00,
2013-08-10 21:22:00,72.0,66.0,-100.00,East,95,1.0,9.0,80,0.00,,,-99.99,,2013-08-11 01:22:00,
2013-08-10 21:32:00,72.0,66.0,-100.00,East,100,0.0,2.0,81,0.00,,,-99.99,,2013-08-11 01:32:00,
2013-08-10 21:43:00,71.0,66.0,-100.00,ESE,115,1.0,3.0,82,0.00,,,-99.99,,2013-08-11 01:43:00,
2013-08-10 21:53:00,71.0,66.0,-100.00,SE,125,2.0,3.0,86,0.00,,,-99.99,,2013-08-11 01:53:00,
2013-08-10 22:02:00,70.0,67.0,-100.00,SE,145,4.0,6.0,90,0.00,,,-99.99,,2013-08-11 02:02:00,
2013-08-10 22:11:00,70.0,67.0,-100.00,SE,135,2.0,5.0,92,0.00,,,-99.99,,2013-08-11 02:11:00,
2013-08-10 22:22:00,70.0,68.0,-100.00,SE,145,3.0,4.0,93,0.00,,,-99.99,,2013-08-11 02:22:00,
2013-08-10 22:32:00,70.0,68.0,-100.00,SE,145,3.0,4.0,93,0.00,,,-99.99,,2013-08-11 02:32:00,
2013-08-10 22:43:00,69.0,67.0,-100.00,SE,140,4.0,9.0,95,0.00,,,-99.99,,2013-08-11 02:43:00,
2013-08-10 22:56:00,68.0,67.0,-100.00,SE,145,4.0,6.0,95,0.00,,,-99.99,,2013-08-11 02:56:00,
2013-08-10 23:06:00,68.0,67.0,-100.00,SE,140,3.0,6.0,96,0.00,,,-99.99,,2013-08-11 03:06:00,
2013-08-10 23:18:00,67.0,66.0,-100.00,SE,140,3.0,5.0,97,0.00,,,-99.99,,2013-08-11 03:18:00,
2013-08-10 23:27:00,67.0,66.0,-100.00,SE,140,3.0,5.0,97,0.00,,,-99.99,,2013-08-11 03:27:00,
2013-08-10 23:35:00,66.0,66.0,-100.00,SSE,155,13.0,13.0,98,0.00,,,-99.99,,2013-08-11 03:35:00,
2013-08-10 23:44:00,66.0,66.0,-100.00,SSE,150,13.0,13.0,99,0.00,,,-99.99,,2013-08-11 03:44:00,
2013-08-10 23:54:00,66.0,66.0,-100.00,SE,135,13.0,13.0,99,0.00,,,-99.99,,2013-08-11 03:54:00,